createdAt,value
2022-11-24T00:01:21.695Z,56.76
2022-11-24T00:04:16.028Z,56.92
2022-11-24T00:06:43.260Z,56.75
2022-11-24T00:09:10.703Z,56.85
2022-11-24T00:11:38.151Z,56.72
2022-11-24T00:14:06.293Z,56.66
2022-11-24T00:16:36.126Z,56.54
2022-11-24T00:19:05.784Z,56.58
2022-11-24T00:21:33.372Z,56.63
2022-11-24T00:24:00.969Z,56.60
2022-11-24T00:26:30.878Z,56.47
2022-11-24T00:29:01.823Z,56.45
2022-11-24T00:31:34.405Z,56.29
2022-11-24T00:34:05.260Z,56.50
2022-11-24T00:36:34.060Z,56.43
2022-11-24T00:39:04.712Z,56.37
2022-11-24T00:41:32.668Z,56.54
2022-11-24T00:44:00.651Z,56.34
2022-11-24T00:46:28.538Z,56.17
2022-11-24T00:48:56.493Z,56.34
2022-11-24T00:51:27.879Z,56.25
2022-11-24T00:53:56.402Z,56.07
2022-11-24T00:56:25.159Z,56.35
2022-11-24T00:58:52.513Z,55.97
2022-11-24T01:01:22.804Z,55.82
2022-11-24T01:03:50.999Z,56.03
2022-11-24T01:06:20.968Z,55.88
2022-11-24T01:08:48.486Z,55.95
2022-11-24T01:11:21.881Z,55.99
2022-11-24T01:13:52.910Z,55.81
2022-11-24T01:16:32.880Z,55.77
2022-11-24T01:19:01.075Z,55.74
2022-11-24T01:21:28.365Z,55.70
2022-11-24T01:23:55.597Z,55.87
2022-11-24T01:26:23.161Z,55.87
2022-11-24T01:28:58.400Z,55.79
2022-11-24T01:31:26.940Z,55.87
2022-11-24T01:33:54.319Z,55.82
2022-11-24T01:36:22.388Z,55.64
2022-11-24T01:38:49.792Z,55.58
2022-11-24T01:41:20.605Z,55.66
2022-11-24T01:43:48.611Z,55.55
2022-11-24T01:46:33.510Z,55.54
2022-11-24T01:49:26.132Z,55.43
2022-11-24T01:52:01.325Z,55.55
2022-11-24T01:54:32.667Z,55.40
2022-11-24T01:57:21.207Z,55.46
2022-11-24T01:59:52.752Z,55.38
2022-11-24T02:02:28.508Z,55.44
2022-11-24T02:04:59.670Z,55.41
2022-11-24T02:07:27.426Z,55.35
2022-11-24T02:10:10.582Z,55.38
2022-11-24T02:12:41.171Z,55.09
2022-11-24T02:15:08.858Z,55.25
2022-11-24T02:17:36.160Z,55.32
2022-11-24T02:20:07.850Z,55.17
2022-11-24T02:22:56.458Z,55.24
2022-11-24T02:25:46.088Z,55.41
2022-11-24T02:28:17.332Z,55.14
2022-11-24T02:30:44.843Z,55.16
2022-11-24T02:33:13.153Z,55.28
2022-11-24T02:35:40.409Z,54.93
2022-11-24T02:38:13.713Z,55.09
2022-11-24T02:40:46.378Z,54.98
2022-11-24T02:43:17.754Z,54.86
2022-11-24T02:45:45.025Z,55.08
2022-11-24T02:48:14.300Z,54.99
2022-11-24T02:50:41.618Z,55.16
2022-11-24T02:53:08.988Z,54.92
2022-11-24T02:55:36.269Z,54.90
2022-11-24T02:58:03.847Z,54.95
2022-11-24T03:00:31.046Z,54.80
2022-11-24T03:02:58.680Z,54.99
2022-11-24T03:05:26.011Z,54.75
2022-11-24T03:07:53.303Z,54.79
2022-11-24T03:10:21.117Z,54.77
2022-11-24T03:12:48.413Z,54.68
2022-11-24T03:15:15.832Z,54.59
2022-11-24T03:17:43.225Z,54.55
2022-11-24T03:20:11.096Z,54.65
2022-11-24T03:22:38.471Z,54.60
2022-11-24T03:25:06.073Z,54.69
2022-11-24T03:27:33.370Z,54.48
2022-11-24T03:30:00.677Z,54.58
2022-11-24T03:32:27.918Z,54.64
2022-11-24T03:34:55.233Z,54.51
2022-11-24T03:37:22.644Z,54.63
2022-11-24T03:39:49.939Z,54.39
2022-11-24T03:42:17.191Z,54.43
2022-11-24T03:44:44.506Z,54.42
2022-11-24T03:47:12.423Z,54.47
2022-11-24T03:49:41.463Z,54.31
2022-11-24T03:52:09.020Z,54.32
2022-11-24T03:54:36.485Z,54.34
2022-11-24T03:57:03.784Z,54.40
2022-11-24T03:59:31.061Z,54.05
2022-11-24T04:01:58.471Z,54.27
2022-11-24T04:04:25.798Z,54.19
2022-11-24T04:06:52.989Z,54.21
2022-11-24T04:09:20.269Z,54.21
2022-11-24T04:12:06.081Z,54.15
2022-11-24T04:14:33.718Z,54.17
2022-11-24T04:17:01.207Z,54.18
2022-11-24T04:19:28.439Z,54.08
2022-11-24T04:21:56.402Z,54.22
2022-11-24T04:24:23.582Z,54.01
2022-11-24T04:26:50.826Z,54.00
2022-11-24T04:29:18.090Z,54.06
2022-11-24T04:31:45.483Z,53.95
2022-11-24T04:34:12.801Z,53.92
2022-11-24T04:36:41.031Z,53.85
2022-11-24T04:39:23.849Z,53.85
2022-11-24T04:41:53.741Z,53.94
2022-11-24T04:44:20.983Z,53.92
2022-11-24T04:46:48.407Z,53.53
2022-11-24T04:49:15.637Z,53.53
2022-11-24T04:51:43.257Z,53.45
2022-11-24T04:54:12.534Z,53.44
2022-11-24T04:56:41.163Z,53.45
2022-11-24T04:59:15.045Z,53.58
2022-11-24T05:01:43.657Z,53.56
2022-11-24T05:04:12.564Z,53.61
2022-11-24T05:06:40.336Z,53.43
2022-11-24T05:09:08.200Z,53.52
2022-11-24T05:11:35.444Z,53.23
2022-11-24T05:14:02.687Z,53.17
2022-11-24T05:16:30.022Z,53.22
2022-11-24T05:18:57.438Z,53.29
2022-11-24T05:21:24.759Z,53.28
2022-11-24T05:23:52.074Z,53.40
2022-11-24T05:26:19.403Z,53.33
2022-11-24T05:28:46.784Z,53.18
2022-11-24T05:31:14.097Z,53.14
2022-11-24T05:33:43.330Z,53.30
2022-11-24T05:36:30.662Z,53.17
2022-11-24T05:38:57.929Z,53.24
2022-11-24T05:41:25.468Z,53.26
2022-11-24T05:43:53.087Z,53.14
2022-11-24T05:46:20.471Z,53.10
2022-11-24T05:48:47.866Z,53.09
2022-11-24T05:51:15.240Z,53.09
2022-11-24T05:53:42.509Z,53.05
2022-11-24T05:56:09.769Z,53.03
2022-11-24T05:58:37.116Z,53.03
2022-11-24T06:01:07.610Z,52.89
2022-11-24T06:03:34.856Z,52.89
2022-11-24T06:06:02.445Z,52.89
2022-11-24T06:08:31.412Z,52.84
2022-11-24T06:11:17.212Z,52.79
2022-11-24T06:13:46.133Z,52.72
2022-11-24T06:16:13.771Z,52.70
2022-11-24T06:18:41.357Z,52.67
2022-11-24T06:21:11.620Z,52.64
2022-11-24T06:23:39.919Z,52.72
2022-11-24T06:26:07.259Z,52.66
2022-11-24T06:28:34.713Z,52.54
2022-11-24T06:31:04.984Z,52.68
2022-11-24T06:33:37.533Z,52.70
2022-11-24T06:36:07.369Z,52.61
2022-11-24T06:38:36.119Z,52.55
2022-11-24T06:41:09.555Z,52.55
2022-11-24T06:43:37.187Z,52.44
2022-11-24T06:46:05.062Z,52.51
2022-11-24T06:48:32.704Z,52.59
2022-11-24T06:51:02.073Z,52.39
2022-11-24T06:53:38.109Z,52.47
2022-11-24T06:56:16.182Z,52.56
2022-11-24T06:58:46.326Z,52.50
2022-11-24T07:01:27.527Z,52.46
2022-11-24T07:03:56.233Z,52.62
2022-11-24T07:06:25.383Z,52.49
2022-11-24T07:08:53.270Z,52.58
2022-11-24T07:11:22.868Z,52.56
2022-11-24T07:13:55.157Z,52.58
2022-11-24T07:16:27.230Z,52.69
2022-11-24T07:18:55.188Z,52.73
2022-11-24T07:21:24.273Z,52.59
2022-11-24T07:23:56.553Z,52.50
2022-11-24T07:26:24.841Z,52.64
2022-11-24T07:28:52.571Z,52.70
2022-11-24T07:31:21.650Z,52.78
2022-11-24T07:33:50.649Z,52.69
2022-11-24T07:36:18.285Z,52.84
2022-11-24T07:38:46.052Z,52.70
2022-11-24T07:41:15.162Z,52.75
2022-11-24T07:43:42.693Z,52.98
2022-11-24T07:46:12.774Z,52.95
2022-11-24T07:48:40.450Z,52.98
2022-11-24T07:51:09.114Z,52.85
2022-11-24T07:53:37.627Z,52.92
2022-11-24T07:56:06.464Z,52.92
2022-11-24T07:58:36.268Z,52.93
2022-11-24T08:01:18.069Z,52.92
2022-11-24T08:03:46.662Z,52.72
2022-11-24T08:06:36.284Z,52.85
2022-11-24T08:09:02.214Z,53.02
2022-11-24T08:11:31.471Z,53.17
2022-11-24T08:13:58.832Z,53.25
2022-11-24T08:16:26.317Z,53.38
2022-11-24T08:18:55.127Z,53.44
2022-11-24T08:21:23.619Z,53.77
2022-11-24T08:23:56.061Z,53.85
2022-11-24T08:26:25.112Z,53.52
2022-11-24T08:28:58.424Z,53.69
2022-11-24T08:31:32.867Z,53.82
2022-11-24T08:34:01.563Z,53.69
2022-11-24T08:36:29.112Z,53.18
2022-11-24T08:38:58.017Z,53.34
2022-11-24T08:41:26.352Z,53.50
2022-11-24T08:43:56.544Z,53.46
2022-11-24T08:46:24.234Z,51.35
2022-11-24T08:48:53.737Z,51.30
2022-11-24T08:51:24.489Z,52.68
2022-11-24T08:53:56.857Z,51.70
2022-11-24T08:56:25.258Z,50.64
2022-11-24T08:58:53.886Z,50.34
2022-11-24T09:01:21.595Z,50.14
2022-11-24T09:03:51.253Z,47.86
2022-11-24T09:06:24.858Z,47.19
2022-11-24T09:08:54.311Z,47.03
2022-11-24T09:11:21.826Z,46.82
2022-11-24T09:13:49.665Z,46.67
2022-11-24T09:16:22.869Z,46.98
2022-11-24T09:19:03.439Z,47.63
2022-11-24T09:21:34.344Z,48.85
2022-11-24T09:24:01.797Z,49.23
2022-11-24T09:26:32.325Z,49.77
2022-11-24T09:29:00.825Z,49.85
2022-11-24T09:31:34.285Z,49.98
2022-11-24T09:34:04.168Z,50.13
2022-11-24T09:36:34.943Z,50.37
2022-11-24T09:39:02.688Z,50.46
2022-11-24T09:41:49.524Z,50.74
2022-11-24T09:44:49.454Z,50.83
2022-11-24T09:47:54.579Z,51.12
2022-11-24T09:50:25.429Z,51.25
2022-11-24T09:53:18.860Z,51.34
2022-11-24T09:55:53.780Z,51.37
2022-11-24T09:59:02.798Z,51.59
2022-11-24T10:01:35.112Z,51.43
2022-11-24T10:04:06.644Z,51.71
2022-11-24T10:07:00.481Z,51.57
2022-11-24T10:09:45.838Z,51.73
2022-11-24T10:12:55.350Z,51.89
2022-11-24T10:15:52.292Z,51.95
2022-11-24T10:18:41.973Z,51.87
2022-11-24T10:21:29.514Z,51.67
2022-11-24T10:24:22.982Z,51.79
2022-11-24T10:27:04.007Z,51.86
2022-11-24T10:29:37.075Z,51.90
2022-11-24T10:32:06.329Z,51.92
2022-11-24T10:34:43.826Z,51.98
2022-11-24T10:37:11.172Z,51.96
2022-11-24T10:40:00.059Z,51.77
2022-11-24T10:42:38.090Z,51.96
2022-11-24T10:45:17.346Z,51.85
2022-11-24T10:47:46.310Z,51.76
2022-11-24T10:50:33.733Z,51.63
2022-11-24T10:53:24.713Z,51.65
2022-11-24T10:55:55.155Z,51.67
2022-11-24T10:58:24.846Z,51.61
2022-11-24T11:00:52.884Z,51.66
2022-11-24T11:03:23.314Z,51.56
2022-11-24T11:05:53.961Z,51.77
2022-11-24T11:08:22.662Z,51.63
2022-11-24T11:11:07.469Z,51.74
2022-11-24T11:13:34.731Z,51.69
2022-11-24T11:16:22.903Z,51.48
2022-11-24T11:18:50.417Z,51.43
2022-11-24T11:21:39.632Z,51.41
2022-11-24T11:24:18.492Z,51.64
2022-11-24T11:26:45.810Z,51.66
2022-11-24T11:35:28.200Z,51.38
2022-11-24T11:38:01.976Z,51.53
2022-11-24T11:40:31.789Z,51.51
2022-11-24T11:43:17.741Z,51.52
2022-11-24T11:45:59.840Z,51.46
2022-11-24T11:48:35.076Z,51.48
2022-11-24T11:51:24.015Z,51.39
2022-11-24T11:54:17.241Z,51.42
2022-11-24T11:56:47.405Z,51.40
2022-11-24T11:59:27.042Z,51.29
2022-11-24T12:02:18.849Z,51.41
2022-11-24T12:04:56.974Z,51.39
2022-11-24T12:07:47.409Z,51.33
2022-11-24T12:10:39.041Z,51.27
2022-11-24T12:13:18.537Z,51.29
2022-11-24T12:15:56.241Z,51.26
2022-11-24T12:21:35.715Z,51.02
2022-11-24T12:24:30.572Z,51.12
2022-11-24T12:27:25.353Z,51.33
2022-11-24T12:30:13.006Z,51.26
2022-11-24T12:32:49.406Z,51.16
2022-11-24T12:35:28.962Z,51.17
2022-11-24T12:38:21.584Z,51.14
2022-11-24T12:41:40.524Z,51.13
2022-11-24T12:44:11.653Z,51.05
2022-11-24T12:47:03.824Z,51.13
2022-11-24T12:49:33.900Z,50.97
2022-11-24T12:52:22.897Z,51.07
2022-11-24T12:54:50.339Z,51.16
2022-11-24T12:57:45.306Z,51.03
2022-11-24T13:00:30.869Z,51.08
2022-11-24T13:03:00.729Z,51.01
2022-11-24T13:05:53.911Z,51.17
2022-11-24T13:08:22.136Z,51.16
2022-11-24T13:10:57.893Z,51.05
2022-11-24T13:13:49.864Z,51.34
2022-11-24T13:19:21.481Z,51.13
2022-11-24T13:21:56.902Z,50.82
2022-11-24T13:24:30.908Z,51.05
2022-11-24T13:27:13.636Z,51.05
2022-11-24T13:29:45.721Z,50.75
2022-11-24T13:32:13.084Z,51.01
2022-11-24T13:34:43.286Z,51.05
2022-11-24T13:37:31.575Z,51.04
2022-11-24T13:40:12.001Z,50.96
2022-11-24T13:42:54.651Z,50.92
2022-11-24T13:45:41.118Z,50.93
2022-11-24T13:48:21.697Z,51.02
2022-11-24T13:50:58.237Z,50.85
2022-11-24T13:53:42.526Z,50.94
2022-11-24T13:56:12.542Z,51.03
2022-11-24T13:58:42.086Z,50.88
2022-11-24T14:01:18.494Z,51.15
2022-11-24T14:07:02.421Z,50.92
2022-11-24T14:09:42.077Z,51.04
2022-11-24T14:12:23.026Z,51.13
2022-11-24T14:14:57.346Z,51.04
2022-11-24T14:17:28.224Z,51.02
2022-11-24T14:19:57.442Z,51.02
2022-11-24T14:22:40.050Z,51.01
2022-11-24T14:25:21.252Z,51.02
2022-11-24T14:27:48.498Z,51.11
2022-11-24T14:30:19.200Z,51.02
2022-11-24T14:33:03.765Z,51.14
2022-11-24T14:35:33.505Z,51.27
2022-11-24T14:38:05.518Z,51.17
2022-11-24T14:40:43.354Z,51.17
2022-11-24T14:43:16.314Z,51.26
2022-11-24T14:45:59.406Z,51.36
2022-11-24T14:48:30.334Z,51.10
2022-11-24T14:51:18.113Z,51.28
2022-11-24T14:53:49.261Z,51.17
2022-11-24T14:56:36.881Z,51.12
2022-11-24T14:59:20.078Z,51.19
2022-11-24T15:01:47.737Z,51.22
2022-11-24T15:05:00.952Z,51.32
2022-11-24T15:07:31.574Z,51.31
2022-11-24T15:10:01.895Z,51.13
2022-11-24T15:12:37.402Z,51.22
2022-11-24T15:15:13.692Z,51.23
2022-11-24T15:17:57.133Z,51.15
2022-11-24T15:20:30.290Z,51.28
2022-11-24T15:23:16.270Z,51.22
2022-11-24T15:25:43.568Z,51.18
2022-11-24T15:28:12.034Z,51.26
2022-11-24T15:30:39.526Z,51.34
2022-11-24T15:33:19.003Z,50.90
2022-11-24T15:35:46.667Z,51.18
2022-11-24T15:38:14.925Z,51.33
2022-11-24T15:40:44.587Z,51.31
2022-11-24T15:43:39.931Z,51.37
2022-11-24T15:46:09.018Z,51.33
2022-11-24T15:48:36.543Z,51.46
2022-11-24T15:51:07.005Z,51.00
2022-11-24T15:53:46.672Z,51.41
2022-11-24T15:56:29.223Z,51.33
2022-11-24T15:58:56.713Z,51.36
2022-11-24T16:01:27.674Z,51.24
2022-11-24T16:03:54.998Z,51.32
2022-11-24T16:06:25.066Z,51.24
2022-11-24T16:08:53.791Z,51.24
2022-11-24T16:11:22.056Z,51.84
2022-11-24T16:13:52.992Z,52.13
2022-11-24T16:16:22.905Z,52.16
2022-11-24T16:18:50.680Z,51.80
2022-11-24T16:21:18.116Z,52.18
2022-11-24T16:23:46.565Z,52.14
2022-11-24T16:26:13.960Z,52.05
2022-11-24T16:28:42.030Z,52.12
2022-11-24T16:31:09.587Z,51.96
2022-11-24T16:33:40.613Z,52.06
2022-11-24T16:36:08.339Z,51.84
2022-11-24T16:38:35.889Z,51.93
2022-11-24T16:41:03.197Z,51.93
2022-11-24T16:43:31.027Z,51.59
2022-11-24T16:46:19.347Z,51.83
2022-11-24T16:48:48.564Z,51.81
2022-11-24T16:51:17.105Z,52.01
2022-11-24T16:53:44.538Z,51.92
2022-11-24T16:56:12.573Z,51.99
2022-11-24T16:58:41.171Z,51.96
2022-11-24T17:01:13.075Z,51.90
2022-11-24T17:03:40.676Z,51.90
2022-11-24T17:06:10.399Z,51.85
2022-11-24T17:08:39.773Z,52.05
2022-11-24T17:11:13.078Z,52.03
2022-11-24T17:13:41.247Z,52.08
2022-11-24T17:16:11.501Z,51.75
2022-11-24T17:18:39.225Z,51.84
2022-11-24T17:21:10.196Z,51.90
2022-11-24T17:23:38.158Z,51.96
2022-11-24T17:26:07.964Z,51.76
2022-11-24T17:28:36.490Z,51.92
2022-11-24T17:31:22.297Z,51.88
2022-11-24T17:33:55.660Z,51.84
2022-11-24T17:36:23.667Z,51.81
2022-11-24T17:38:51.125Z,51.96
2022-11-24T17:41:19.495Z,51.96
2022-11-24T17:43:51.033Z,51.75
2022-11-24T17:46:19.028Z,51.87
2022-11-24T17:48:46.971Z,52.08
2022-11-24T17:51:16.662Z,51.92
2022-11-24T17:53:46.738Z,51.96
2022-11-24T17:56:16.564Z,51.77
2022-11-24T17:58:44.497Z,51.76
2022-11-24T18:01:13.202Z,51.72
2022-11-24T18:03:41.758Z,51.97
2022-11-24T18:06:11.460Z,52.07
2022-11-24T18:08:41.095Z,52.01
2022-11-24T18:11:12.352Z,52.17
2022-11-24T18:13:56.750Z,52.24
2022-11-24T18:16:30.077Z,52.36
2022-11-24T18:19:08.468Z,52.38
2022-11-24T18:21:38.181Z,52.35
2022-11-24T18:24:06.228Z,52.53
2022-11-24T18:26:33.605Z,52.49
2022-11-24T18:29:00.811Z,52.49
2022-11-24T18:31:29.405Z,52.73
2022-11-24T18:33:56.984Z,52.65
2022-11-24T18:36:29.942Z,52.82
2022-11-24T18:39:00.041Z,52.74
2022-11-24T18:41:27.235Z,52.79
2022-11-24T18:43:54.470Z,52.80
2022-11-24T18:46:21.969Z,52.74
2022-11-24T18:48:51.388Z,52.83
2022-11-24T18:51:18.800Z,52.79
2022-11-24T18:53:46.671Z,52.89
2022-11-24T18:56:16.461Z,52.94
2022-11-24T18:58:44.542Z,52.82
2022-11-24T19:01:17.101Z,52.68
2022-11-24T19:03:48.934Z,52.56
2022-11-24T19:06:20.117Z,52.36
2022-11-24T19:08:48.340Z,52.36
2022-11-24T19:11:20.674Z,52.12
2022-11-24T19:13:49.109Z,52.40
2022-11-24T19:16:17.758Z,52.06
2022-11-24T19:18:48.921Z,52.38
2022-11-24T19:21:20.715Z,52.45
2022-11-24T19:23:47.986Z,52.34
2022-11-24T19:26:15.684Z,52.60
2022-11-24T19:28:43.940Z,52.39
2022-11-24T19:31:13.949Z,52.42
2022-11-24T19:33:42.133Z,52.46
2022-11-24T19:36:15.724Z,52.43
2022-11-24T19:38:50.025Z,52.48
2022-11-24T19:41:19.599Z,52.38
2022-11-24T19:43:47.960Z,52.57
2022-11-24T19:46:18.055Z,52.53
2022-11-24T19:48:50.474Z,52.17
2022-11-24T19:51:19.942Z,52.37
2022-11-24T19:53:47.626Z,52.44
2022-11-24T19:56:20.520Z,52.54
2022-11-24T19:58:49.061Z,52.47
2022-11-24T20:01:17.856Z,52.44
2022-11-24T20:03:46.771Z,52.35
2022-11-24T20:06:15.212Z,52.39
2022-11-24T20:08:43.038Z,52.31
2022-11-24T20:11:16.814Z,52.43
2022-11-24T20:13:45.930Z,52.20
2022-11-24T20:16:26.422Z,52.27
2022-11-24T20:18:59.204Z,51.34
2022-11-24T20:21:28.868Z,51.45
2022-11-24T20:23:58.684Z,52.00
2022-11-24T20:26:29.293Z,52.37
2022-11-24T20:28:57.860Z,52.45
2022-11-24T20:31:36.107Z,51.94
2022-11-24T20:34:05.234Z,51.41
2022-11-24T20:36:34.076Z,51.25
2022-11-24T20:39:03.838Z,51.33
2022-11-24T20:41:33.940Z,51.11
2022-11-24T20:44:05.083Z,50.89
2022-11-24T20:46:34.588Z,50.96
2022-11-24T20:49:03.605Z,51.15
2022-11-24T20:51:34.131Z,50.87
2022-11-24T20:54:03.987Z,50.89
2022-11-24T20:56:33.637Z,50.78
2022-11-24T20:59:01.525Z,50.76
2022-11-24T21:01:31.691Z,50.77
2022-11-24T21:03:59.789Z,50.62
2022-11-24T21:06:28.363Z,50.62
2022-11-24T21:09:00.390Z,51.12
2022-11-24T21:11:30.149Z,50.64
2022-11-24T21:13:58.122Z,50.92
2022-11-24T21:16:27.944Z,52.13
2022-11-24T21:18:58.327Z,50.88
2022-11-24T21:21:28.291Z,51.35
2022-11-24T21:23:55.559Z,51.27
2022-11-24T21:26:22.843Z,50.96
2022-11-24T21:28:50.076Z,51.34
2022-11-24T21:31:23.219Z,52.04
2022-11-24T21:33:51.552Z,51.16
2022-11-24T21:36:24.804Z,51.95
2022-11-24T21:38:57.348Z,51.55
2022-11-24T21:41:27.098Z,52.12
2022-11-24T21:43:57.895Z,52.18
2022-11-24T21:46:25.235Z,50.99
2022-11-24T21:48:52.618Z,50.57
2022-11-24T21:51:21.528Z,50.51
2022-11-24T21:53:49.038Z,51.07
2022-11-24T21:56:18.626Z,50.45
2022-11-24T21:58:47.889Z,50.39
2022-11-24T22:01:16.998Z,51.16
2022-11-24T22:03:45.777Z,50.21
2022-11-24T22:06:13.677Z,50.18
2022-11-24T22:08:41.042Z,50.22
2022-11-24T22:11:12.554Z,50.10
2022-11-24T22:13:40.563Z,49.96
2022-11-24T22:16:11.027Z,50.07
2022-11-24T22:18:40.656Z,50.18
2022-11-24T22:21:11.578Z,50.00
2022-11-24T22:23:39.092Z,50.43
2022-11-24T22:26:11.262Z,50.29
2022-11-24T22:28:39.161Z,50.55
2022-11-24T22:31:08.671Z,51.47
2022-11-24T22:33:36.125Z,50.78
2022-11-24T22:36:03.882Z,50.76
2022-11-24T22:38:32.088Z,50.73
2022-11-24T22:41:05.333Z,50.69
2022-11-24T22:43:33.331Z,50.59
2022-11-24T22:46:08.703Z,50.67
2022-11-24T22:48:36.112Z,50.81
2022-11-24T22:51:07.829Z,50.55
2022-11-24T22:53:35.378Z,50.47
2022-11-24T22:56:04.723Z,50.55
2022-11-24T22:58:33.339Z,50.64
2022-11-24T23:01:10.058Z,50.53
2022-11-24T23:03:38.352Z,50.42
2022-11-24T23:06:09.816Z,50.48
2022-11-24T23:08:37.477Z,50.44
2022-11-24T23:11:08.473Z,50.42
2022-11-24T23:13:36.156Z,50.54
2022-11-24T23:16:15.575Z,51.20
2022-11-24T23:18:43.684Z,50.03
2022-11-24T23:21:22.837Z,50.15
2022-11-24T23:23:52.069Z,50.17
2022-11-24T23:26:23.130Z,50.21
2022-11-24T23:28:50.546Z,50.38
2022-11-24T23:31:21.506Z,50.50
2022-11-24T23:33:48.818Z,50.43
2022-11-24T23:36:18.274Z,50.49
2022-11-24T23:38:46.326Z,50.53
2022-11-24T23:41:16.078Z,50.80
2022-11-24T23:43:43.882Z,50.55
2022-11-24T23:46:25.354Z,50.64
2022-11-24T23:48:54.246Z,50.59
2022-11-24T23:51:23.567Z,50.82
2022-11-24T23:53:51.914Z,50.78
2022-11-24T23:56:21.527Z,50.67
2022-11-24T23:58:49.543Z,50.77
